sensor_id;sensor_type;location;lat;lon;timestamp;temperature;humidity
76239;SHT30;65043;48.392;-4.472;2023-05-10T00:00:57;15.03;71.39
76239;SHT30;65043;48.392;-4.472;2023-05-10T00:03:22;15.04;71.37
76239;SHT30;65043;48.392;-4.472;2023-05-10T00:05:47;15.03;71.32
76239;SHT30;65043;48.392;-4.472;2023-05-10T00:08:13;15.04;71.27
76239;SHT30;65043;48.392;-4.472;2023-05-10T00:10:38;15.03;71.32
76239;SHT30;65043;48.392;-4.472;2023-05-10T00:13:04;15.04;71.14
76239;SHT30;65043;48.392;-4.472;2023-05-10T00:15:29;15.03;71.33
76239;SHT30;65043;48.392;-4.472;2023-05-10T00:17:56;15.01;71.28
76239;SHT30;65043;48.392;-4.472;2023-05-10T00:20:21;15.01;71.30
76239;SHT30;65043;48.392;-4.472;2023-05-10T00:22:47;15.03;71.28
76239;SHT30;65043;48.392;-4.472;2023-05-10T00:25:12;15.01;71.07
76239;SHT30;65043;48.392;-4.472;2023-05-10T00:27:37;15.00;71.29
76239;SHT30;65043;48.392;-4.472;2023-05-10T00:30:03;15.00;71.37
76239;SHT30;65043;48.392;-4.472;2023-05-10T00:32:29;15.00;71.44
76239;SHT30;65043;48.392;-4.472;2023-05-10T00:34:55;15.00;71.34
76239;SHT30;65043;48.392;-4.472;2023-05-10T00:37:20;14.97;71.26
76239;SHT30;65043;48.392;-4.472;2023-05-10T00:39:45;14.99;71.29
76239;SHT30;65043;48.392;-4.472;2023-05-10T00:42:11;14.99;71.35
76239;SHT30;65043;48.392;-4.472;2023-05-10T00:44:37;14.99;71.25
76239;SHT30;65043;48.392;-4.472;2023-05-10T00:47:02;14.99;71.30
76239;SHT30;65043;48.392;-4.472;2023-05-10T00:49:28;15.00;71.38
76239;SHT30;65043;48.392;-4.472;2023-05-10T00:51:54;15.00;71.65
76239;SHT30;65043;48.392;-4.472;2023-05-10T00:54:19;15.01;71.81
76239;SHT30;65043;48.392;-4.472;2023-05-10T00:56:45;15.00;71.91
76239;SHT30;65043;48.392;-4.472;2023-05-10T00:59:17;15.00;72.06
76239;SHT30;65043;48.392;-4.472;2023-05-10T01:01:44;14.99;72.17
76239;SHT30;65043;48.392;-4.472;2023-05-10T01:04:10;14.99;72.28
76239;SHT30;65043;48.392;-4.472;2023-05-10T01:06:37;15.01;72.31
76239;SHT30;65043;48.392;-4.472;2023-05-10T01:09:03;15.03;72.45
76239;SHT30;65043;48.392;-4.472;2023-05-10T01:11:28;15.04;72.46
76239;SHT30;65043;48.392;-4.472;2023-05-10T01:13:57;15.03;72.48
76239;SHT30;65043;48.392;-4.472;2023-05-10T01:16:23;15.03;72.37
76239;SHT30;65043;48.392;-4.472;2023-05-10T01:18:50;15.04;72.62
76239;SHT30;65043;48.392;-4.472;2023-05-10T01:38:29;15.00;72.77
76239;SHT30;65043;48.392;-4.472;2023-05-10T01:40:34;15.03;72.87
76239;SHT30;65043;48.392;-4.472;2023-05-10T01:43:04;15.03;72.84
76239;SHT30;65043;48.392;-4.472;2023-05-10T01:45:49;15.00;72.91
76239;SHT30;65043;48.392;-4.472;2023-05-10T01:48:16;15.01;72.74
76239;SHT30;65043;48.392;-4.472;2023-05-10T01:50:45;15.00;72.77
76239;SHT30;65043;48.392;-4.472;2023-05-10T01:53:13;15.00;72.92
76239;SHT30;65043;48.392;-4.472;2023-05-10T01:55:46;14.97;72.68
76239;SHT30;65043;48.392;-4.472;2023-05-10T01:58:32;14.94;72.95
76239;SHT30;65043;48.392;-4.472;2023-05-10T02:01:01;14.93;72.89
76239;SHT30;65043;48.392;-4.472;2023-05-10T02:03:29;14.91;72.95
76239;SHT30;65043;48.392;-4.472;2023-05-10T02:05:57;14.91;72.97
76239;SHT30;65043;48.392;-4.472;2023-05-10T02:08:23;14.90;72.92
76239;SHT30;65043;48.392;-4.472;2023-05-10T02:10:51;14.91;73.05
76239;SHT30;65043;48.392;-4.472;2023-05-10T02:13:18;14.91;73.01
76239;SHT30;65043;48.392;-4.472;2023-05-10T02:15:46;14.94;73.00
76239;SHT30;65043;48.392;-4.472;2023-05-10T02:18:13;14.90;73.00
76239;SHT30;65043;48.392;-4.472;2023-05-10T02:20:41;14.93;73.11
76239;SHT30;65043;48.392;-4.472;2023-05-10T02:23:08;14.89;73.09
76239;SHT30;65043;48.392;-4.472;2023-05-10T02:25:36;14.90;73.10
76239;SHT30;65043;48.392;-4.472;2023-05-10T02:28:05;14.91;73.07
76239;SHT30;65043;48.392;-4.472;2023-05-10T02:30:33;14.94;72.97
76239;SHT30;65043;48.392;-4.472;2023-05-10T02:33:00;14.90;73.01
76239;SHT30;65043;48.392;-4.472;2023-05-10T02:35:28;14.89;73.14
76239;SHT30;65043;48.392;-4.472;2023-05-10T02:37:54;14.87;73.19
76239;SHT30;65043;48.392;-4.472;2023-05-10T02:40:21;14.91;73.20
76239;SHT30;65043;48.392;-4.472;2023-05-10T02:42:50;14.86;73.27
76239;SHT30;65043;48.392;-4.472;2023-05-10T02:45:19;14.89;73.30
76239;SHT30;65043;48.392;-4.472;2023-05-10T02:47:46;14.90;73.25
76239;SHT30;65043;48.392;-4.472;2023-05-10T02:50:12;14.90;73.38
76239;SHT30;65043;48.392;-4.472;2023-05-10T02:52:44;14.89;73.44
76239;SHT30;65043;48.392;-4.472;2023-05-10T02:55:13;14.89;73.38
76239;SHT30;65043;48.392;-4.472;2023-05-10T02:57:48;14.84;73.42
76239;SHT30;65043;48.392;-4.472;2023-05-10T03:00:16;14.83;73.47
76239;SHT30;65043;48.392;-4.472;2023-05-10T03:02:41;14.83;73.66
76239;SHT30;65043;48.392;-4.472;2023-05-10T03:05:07;14.83;73.62
76239;SHT30;65043;48.392;-4.472;2023-05-10T03:07:33;14.79;73.68
76239;SHT30;65043;48.392;-4.472;2023-05-10T03:09:59;14.81;73.62
76239;SHT30;65043;48.392;-4.472;2023-05-10T03:18:09;14.83;73.67
76239;SHT30;65043;48.392;-4.472;2023-05-10T03:20:48;14.84;73.64
76239;SHT30;65043;48.392;-4.472;2023-05-10T03:23:27;14.83;73.68
76239;SHT30;65043;48.392;-4.472;2023-05-10T03:25:54;14.86;73.66
76239;SHT30;65043;48.392;-4.472;2023-05-10T03:28:21;14.84;73.71
76239;SHT30;65043;48.392;-4.472;2023-05-10T03:30:47;14.87;73.70
76239;SHT30;65043;48.392;-4.472;2023-05-10T03:33:13;14.83;73.60
76239;SHT30;65043;48.392;-4.472;2023-05-10T03:35:39;14.83;73.61
76239;SHT30;65043;48.392;-4.472;2023-05-10T03:38:05;14.83;73.65
76239;SHT30;65043;48.392;-4.472;2023-05-10T03:40:30;14.81;73.60
76239;SHT30;65043;48.392;-4.472;2023-05-10T03:42:58;14.84;73.70
76239;SHT30;65043;48.392;-4.472;2023-05-10T03:45:23;14.81;73.87
76239;SHT30;65043;48.392;-4.472;2023-05-10T03:47:48;14.83;73.90
76239;SHT30;65043;48.392;-4.472;2023-05-10T03:50:14;14.84;73.89
76239;SHT30;65043;48.392;-4.472;2023-05-10T03:52:39;14.86;73.95
76239;SHT30;65043;48.392;-4.472;2023-05-10T03:55:05;14.84;74.05
76239;SHT30;65043;48.392;-4.472;2023-05-10T03:57:31;14.87;74.11
76239;SHT30;65043;48.392;-4.472;2023-05-10T03:59:56;14.89;74.09
76239;SHT30;65043;48.392;-4.472;2023-05-10T04:02:22;14.86;74.31
76239;SHT30;65043;48.392;-4.472;2023-05-10T04:04:47;14.87;74.34
76239;SHT30;65043;48.392;-4.472;2023-05-10T04:07:14;14.87;74.47
76239;SHT30;65043;48.392;-4.472;2023-05-10T04:09:39;14.84;74.48
76239;SHT30;65043;48.392;-4.472;2023-05-10T04:12:05;14.84;74.43
76239;SHT30;65043;48.392;-4.472;2023-05-10T04:14:30;14.84;74.44
76239;SHT30;65043;48.392;-4.472;2023-05-10T04:16:56;14.86;74.47
76239;SHT30;65043;48.392;-4.472;2023-05-10T04:19:21;14.83;74.37
76239;SHT30;65043;48.392;-4.472;2023-05-10T04:21:46;14.89;74.25
76239;SHT30;65043;48.392;-4.472;2023-05-10T04:24:12;14.89;74.27
76239;SHT30;65043;48.392;-4.472;2023-05-10T04:26:38;14.90;74.32
76239;SHT30;65043;48.392;-4.472;2023-05-10T04:29:03;14.91;74.25
76239;SHT30;65043;48.392;-4.472;2023-05-10T04:31:28;14.91;74.25
76239;SHT30;65043;48.392;-4.472;2023-05-10T04:33:54;14.91;74.14
76239;SHT30;65043;48.392;-4.472;2023-05-10T04:36:19;14.90;74.06
76239;SHT30;65043;48.392;-4.472;2023-05-10T04:38:44;14.89;74.08
76239;SHT30;65043;48.392;-4.472;2023-05-10T04:41:10;14.86;74.04
76239;SHT30;65043;48.392;-4.472;2023-05-10T04:43:37;14.83;74.04
76239;SHT30;65043;48.392;-4.472;2023-05-10T04:46:03;14.84;74.00
76239;SHT30;65043;48.392;-4.472;2023-05-10T04:48:28;14.81;74.08
76239;SHT30;65043;48.392;-4.472;2023-05-10T04:50:54;14.81;74.09
76239;SHT30;65043;48.392;-4.472;2023-05-10T04:53:19;14.79;74.04
76239;SHT30;65043;48.392;-4.472;2023-05-10T04:55:45;14.81;74.10
76239;SHT30;65043;48.392;-4.472;2023-05-10T04:58:11;14.81;74.07
76239;SHT30;65043;48.392;-4.472;2023-05-10T05:00:36;14.79;74.00
76239;SHT30;65043;48.392;-4.472;2023-05-10T05:03:02;14.77;73.87
76239;SHT30;65043;48.392;-4.472;2023-05-10T05:05:27;14.76;74.01
76239;SHT30;65043;48.392;-4.472;2023-05-10T05:07:52;14.76;73.97
76239;SHT30;65043;48.392;-4.472;2023-05-10T05:10:18;14.73;74.06
76239;SHT30;65043;48.392;-4.472;2023-05-10T05:12:44;14.73;74.03
76239;SHT30;65043;48.392;-4.472;2023-05-10T05:15:10;14.75;73.87
76239;SHT30;65043;48.392;-4.472;2023-05-10T05:17:35;14.76;73.75
76239;SHT30;65043;48.392;-4.472;2023-05-10T05:20:01;14.73;73.63
76239;SHT30;65043;48.392;-4.472;2023-05-10T05:22:26;14.75;73.26
76239;SHT30;65043;48.392;-4.472;2023-05-10T05:24:57;14.75;73.43
76239;SHT30;65043;48.392;-4.472;2023-05-10T05:27:23;14.75;73.23
76239;SHT30;65043;48.392;-4.472;2023-05-10T05:29:55;14.76;73.30
76239;SHT30;65043;48.392;-4.472;2023-05-10T05:32:21;14.73;73.43
76239;SHT30;65043;48.392;-4.472;2023-05-10T05:34:47;14.72;73.50
76239;SHT30;65043;48.392;-4.472;2023-05-10T05:37:16;14.75;73.57
76239;SHT30;65043;48.392;-4.472;2023-05-10T05:39:42;14.77;73.47
76239;SHT30;65043;48.392;-4.472;2023-05-10T05:42:11;14.77;73.57
76239;SHT30;65043;48.392;-4.472;2023-05-10T05:44:38;14.79;73.49
76239;SHT30;65043;48.392;-4.472;2023-05-10T05:47:04;14.80;73.49
76239;SHT30;65043;48.392;-4.472;2023-05-10T05:49:29;14.83;73.51
76239;SHT30;65043;48.392;-4.472;2023-05-10T05:51:58;14.80;73.63
76239;SHT30;65043;48.392;-4.472;2023-05-10T05:54:24;14.76;73.78
76239;SHT30;65043;48.392;-4.472;2023-05-10T05:56:49;14.79;73.94
76239;SHT30;65043;48.392;-4.472;2023-05-10T05:59:14;14.76;73.97
76239;SHT30;65043;48.392;-4.472;2023-05-10T06:01:40;14.79;74.15
76239;SHT30;65043;48.392;-4.472;2023-05-10T06:04:05;14.81;74.16
76239;SHT30;65043;48.392;-4.472;2023-05-10T06:06:30;14.81;74.25
76239;SHT30;65043;48.392;-4.472;2023-05-10T06:08:57;14.80;74.32
76239;SHT30;65043;48.392;-4.472;2023-05-10T06:11:22;14.81;74.31
76239;SHT30;65043;48.392;-4.472;2023-05-10T06:13:48;14.80;74.35
76239;SHT30;65043;48.392;-4.472;2023-05-10T06:16:14;14.77;74.46
76239;SHT30;65043;48.392;-4.472;2023-05-10T06:18:39;14.80;74.53
76239;SHT30;65043;48.392;-4.472;2023-05-10T06:21:05;14.79;74.58
76239;SHT30;65043;48.392;-4.472;2023-05-10T06:23:30;14.80;74.61
76239;SHT30;65043;48.392;-4.472;2023-05-10T06:25:56;14.81;74.89
76239;SHT30;65043;48.392;-4.472;2023-05-10T06:28:21;14.81;74.98
76239;SHT30;65043;48.392;-4.472;2023-05-10T06:30:47;14.83;75.11
76239;SHT30;65043;48.392;-4.472;2023-05-10T06:33:12;14.81;75.27
76239;SHT30;65043;48.392;-4.472;2023-05-10T06:35:38;14.84;75.19
76239;SHT30;65043;48.392;-4.472;2023-05-10T06:38:04;14.86;75.26
76239;SHT30;65043;48.392;-4.472;2023-05-10T06:40:29;14.84;75.46
76239;SHT30;65043;48.392;-4.472;2023-05-10T06:42:55;14.86;74.63
76239;SHT30;65043;48.392;-4.472;2023-05-10T06:45:20;14.84;74.24
76239;SHT30;65043;48.392;-4.472;2023-05-10T06:47:46;14.84;74.28
76239;SHT30;65043;48.392;-4.472;2023-05-10T06:50:11;14.84;74.11
76239;SHT30;65043;48.392;-4.472;2023-05-10T06:52:37;14.83;74.41
76239;SHT30;65043;48.392;-4.472;2023-05-10T06:55:03;14.80;74.58
76239;SHT30;65043;48.392;-4.472;2023-05-10T06:57:29;14.79;74.71
76239;SHT30;65043;48.392;-4.472;2023-05-10T06:59:55;14.81;74.50
76239;SHT30;65043;48.392;-4.472;2023-05-10T07:02:22;14.83;74.68
76239;SHT30;65043;48.392;-4.472;2023-05-10T07:04:47;14.80;74.73
76239;SHT30;65043;48.392;-4.472;2023-05-10T07:07:13;14.81;74.88
76239;SHT30;65043;48.392;-4.472;2023-05-10T07:09:39;14.81;74.47
76239;SHT30;65043;48.392;-4.472;2023-05-10T07:12:04;14.86;74.49
76239;SHT30;65043;48.392;-4.472;2023-05-10T07:14:30;14.81;74.54
76239;SHT30;65043;48.392;-4.472;2023-05-10T07:16:55;14.84;74.52
76239;SHT30;65043;48.392;-4.472;2023-05-10T07:19:20;14.86;74.62
76239;SHT30;65043;48.392;-4.472;2023-05-10T07:21:46;14.86;74.82
76239;SHT30;65043;48.392;-4.472;2023-05-10T07:24:11;14.86;74.77
76239;SHT30;65043;48.392;-4.472;2023-05-10T07:26:37;14.87;74.56
76239;SHT30;65043;48.392;-4.472;2023-05-10T07:29:02;14.81;74.24
76239;SHT30;65043;48.392;-4.472;2023-05-10T07:31:28;14.84;74.43
76239;SHT30;65043;48.392;-4.472;2023-05-10T07:33:53;14.80;74.23
76239;SHT30;65043;48.392;-4.472;2023-05-10T07:36:19;14.79;73.95
76239;SHT30;65043;48.392;-4.472;2023-05-10T07:38:44;14.76;73.69
76239;SHT30;65043;48.392;-4.472;2023-05-10T07:41:11;14.76;73.88
76239;SHT30;65043;48.392;-4.472;2023-05-10T07:43:37;14.77;73.87
76239;SHT30;65043;48.392;-4.472;2023-05-10T07:46:02;14.79;73.67
76239;SHT30;65043;48.392;-4.472;2023-05-10T07:48:27;14.81;73.70
76239;SHT30;65043;48.392;-4.472;2023-05-10T07:50:53;14.83;73.67
76239;SHT30;65043;48.392;-4.472;2023-05-10T07:53:18;14.87;73.55
76239;SHT30;65043;48.392;-4.472;2023-05-10T07:55:44;14.91;72.93
76239;SHT30;65043;48.392;-4.472;2023-05-10T07:58:14;14.90;73.22
76239;SHT30;65043;48.392;-4.472;2023-05-10T08:00:40;14.89;72.72
76239;SHT30;65043;48.392;-4.472;2023-05-10T08:03:06;14.94;72.93
76239;SHT30;65043;48.392;-4.472;2023-05-10T08:05:31;14.94;73.27
76239;SHT30;65043;48.392;-4.472;2023-05-10T08:07:57;15.00;73.06
76239;SHT30;65043;48.392;-4.472;2023-05-10T08:10:23;14.99;72.96
76239;SHT30;65043;48.392;-4.472;2023-05-10T08:12:49;15.01;73.09
76239;SHT30;65043;48.392;-4.472;2023-05-10T08:15:14;15.03;73.02
76239;SHT30;65043;48.392;-4.472;2023-05-10T08:17:40;15.07;73.12
76239;SHT30;65043;48.392;-4.472;2023-05-10T08:20:06;15.07;73.08
76239;SHT30;65043;48.392;-4.472;2023-05-10T08:22:32;15.10;72.84
76239;SHT30;65043;48.392;-4.472;2023-05-10T08:24:58;15.16;72.99
76239;SHT30;65043;48.392;-4.472;2023-05-10T08:27:23;15.20;72.66
76239;SHT30;65043;48.392;-4.472;2023-05-10T08:29:49;15.24;72.57
76239;SHT30;65043;48.392;-4.472;2023-05-10T08:32:14;15.30;72.48
76239;SHT30;65043;48.392;-4.472;2023-05-10T08:34:39;15.34;72.35
76239;SHT30;65043;48.392;-4.472;2023-05-10T08:37:05;15.37;72.14
76239;SHT30;65043;48.392;-4.472;2023-05-10T08:39:34;15.44;71.54
76239;SHT30;65043;48.392;-4.472;2023-05-10T08:42:01;15.45;70.68
76239;SHT30;65043;48.392;-4.472;2023-05-10T08:44:27;15.49;71.02
76239;SHT30;65043;48.392;-4.472;2023-05-10T08:46:56;15.51;71.07
76239;SHT30;65043;48.392;-4.472;2023-05-10T08:49:23;15.54;71.37
76239;SHT30;65043;48.392;-4.472;2023-05-10T08:51:54;15.57;71.16
76239;SHT30;65043;48.392;-4.472;2023-05-10T08:54:21;15.59;70.95
76239;SHT30;65043;48.392;-4.472;2023-05-10T08:56:47;15.62;71.13
76239;SHT30;65043;48.392;-4.472;2023-05-10T08:59:12;15.62;71.12
76239;SHT30;65043;48.392;-4.472;2023-05-10T09:01:39;15.62;70.77
76239;SHT30;65043;48.392;-4.472;2023-05-10T09:04:05;15.65;70.91
76239;SHT30;65043;48.392;-4.472;2023-05-10T09:06:31;15.68;70.63
76239;SHT30;65043;48.392;-4.472;2023-05-10T09:08:57;15.72;70.50
76239;SHT30;65043;48.392;-4.472;2023-05-10T09:11:23;15.72;69.74
76239;SHT30;65043;48.392;-4.472;2023-05-10T09:13:50;15.72;69.91
76239;SHT30;65043;48.392;-4.472;2023-05-10T09:16:17;15.75;69.84
76239;SHT30;65043;48.392;-4.472;2023-05-10T09:18:42;15.79;69.77
76239;SHT30;65043;48.392;-4.472;2023-05-10T09:21:09;15.77;69.25
76239;SHT30;65043;48.392;-4.472;2023-05-10T09:23:35;15.79;68.93
76239;SHT30;65043;48.392;-4.472;2023-05-10T09:26:07;15.81;69.50
76239;SHT30;65043;48.392;-4.472;2023-05-10T09:28:34;15.86;69.62
76239;SHT30;65043;48.392;-4.472;2023-05-10T09:31:00;15.89;68.83
76239;SHT30;65043;48.392;-4.472;2023-05-10T09:33:25;15.89;68.52
76239;SHT30;65043;48.392;-4.472;2023-05-10T09:35:54;15.86;68.46
76239;SHT30;65043;48.392;-4.472;2023-05-10T09:38:19;15.88;68.23
76239;SHT30;65043;48.392;-4.472;2023-05-10T09:40:52;15.88;68.80
76239;SHT30;65043;48.392;-4.472;2023-05-10T09:43:20;15.92;68.84
76239;SHT30;65043;48.392;-4.472;2023-05-10T09:45:48;15.95;68.61
76239;SHT30;65043;48.392;-4.472;2023-05-10T09:48:14;15.99;68.19
76239;SHT30;65043;48.392;-4.472;2023-05-10T09:50:40;16.08;67.66
76239;SHT30;65043;48.392;-4.472;2023-05-10T09:53:06;16.06;67.62
76239;SHT30;65043;48.392;-4.472;2023-05-10T09:55:38;16.09;66.99
76239;SHT30;65043;48.392;-4.472;2023-05-10T09:58:05;16.09;66.21
76239;SHT30;65043;48.392;-4.472;2023-05-10T10:00:36;16.09;66.15
76239;SHT30;65043;48.392;-4.472;2023-05-10T10:03:02;16.10;65.47
76239;SHT30;65043;48.392;-4.472;2023-05-10T10:05:33;16.09;64.56
76239;SHT30;65043;48.392;-4.472;2023-05-10T10:08:00;16.08;64.76
76239;SHT30;65043;48.392;-4.472;2023-05-10T10:10:26;16.06;64.20
76239;SHT30;65043;48.392;-4.472;2023-05-10T10:12:52;16.09;64.99
76239;SHT30;65043;48.392;-4.472;2023-05-10T10:15:18;16.12;64.96
76239;SHT30;65043;48.392;-4.472;2023-05-10T10:17:44;16.08;63.31
76239;SHT30;65043;48.392;-4.472;2023-05-10T10:20:10;16.12;63.83
76239;SHT30;65043;48.392;-4.472;2023-05-10T10:22:36;16.13;64.01
76239;SHT30;65043;48.392;-4.472;2023-05-10T10:25:02;16.17;62.99
76239;SHT30;65043;48.392;-4.472;2023-05-10T10:30:30;16.21;63.70
76239;SHT30;65043;48.392;-4.472;2023-05-10T10:35:45;16.24;63.74
76239;SHT30;65043;48.392;-4.472;2023-05-10T10:38:12;16.26;64.49
76239;SHT30;65043;48.392;-4.472;2023-05-10T10:40:38;16.26;63.81
76239;SHT30;65043;48.392;-4.472;2023-05-10T10:43:28;16.29;63.55
76239;SHT30;65043;48.392;-4.472;2023-05-10T10:46:13;16.27;63.92
76239;SHT30;65043;48.392;-4.472;2023-05-10T10:48:40;16.31;63.82
76239;SHT30;65043;48.392;-4.472;2023-05-10T10:51:06;16.31;63.49
76239;SHT30;65043;48.392;-4.472;2023-05-10T10:53:32;16.30;63.79
76239;SHT30;65043;48.392;-4.472;2023-05-10T10:56:11;16.24;64.40
76239;SHT30;65043;48.392;-4.472;2023-05-10T10:58:39;16.27;64.30
76239;SHT30;65043;48.392;-4.472;2023-05-10T11:01:18;16.30;64.62
76239;SHT30;65043;48.392;-4.472;2023-05-10T11:06:31;16.33;64.46
76239;SHT30;65043;48.392;-4.472;2023-05-10T11:08:57;16.29;63.78
76239;SHT30;65043;48.392;-4.472;2023-05-10T11:11:23;16.26;64.12
76239;SHT30;65043;48.392;-4.472;2023-05-10T11:13:48;16.24;64.71
76239;SHT30;65043;48.392;-4.472;2023-05-10T11:16:19;16.21;65.29
76239;SHT30;65043;48.392;-4.472;2023-05-10T11:19:15;16.16;65.60
76239;SHT30;65043;48.392;-4.472;2023-05-10T11:24:16;16.08;68.65
76239;SHT30;65043;48.392;-4.472;2023-05-10T11:26:42;16.09;67.92
76239;SHT30;65043;48.392;-4.472;2023-05-10T11:29:07;16.05;67.28
76239;SHT30;65043;48.392;-4.472;2023-05-10T11:31:33;16.08;66.61
76239;SHT30;65043;48.392;-4.472;2023-05-10T11:34:00;16.09;66.88
76239;SHT30;65043;48.392;-4.472;2023-05-10T11:36:27;16.13;66.45
76239;SHT30;65043;48.392;-4.472;2023-05-10T11:38:55;16.14;65.28
76239;SHT30;65043;48.392;-4.472;2023-05-10T11:41:23;16.20;65.88
76239;SHT30;65043;48.392;-4.472;2023-05-10T11:43:55;16.21;64.78
76239;SHT30;65043;48.392;-4.472;2023-05-10T11:46:27;16.29;64.65
76239;SHT30;65043;48.392;-4.472;2023-05-10T11:48:58;16.31;63.72
76239;SHT30;65043;48.392;-4.472;2023-05-10T11:51:25;16.36;64.06
76239;SHT30;65043;48.392;-4.472;2023-05-10T11:53:55;16.43;63.96
76239;SHT30;65043;48.392;-4.472;2023-05-10T11:56:20;16.53;64.53
76239;SHT30;65043;48.392;-4.472;2023-05-10T11:58:53;16.58;63.82
76239;SHT30;65043;48.392;-4.472;2023-05-10T12:01:19;16.61;63.74
76239;SHT30;65043;48.392;-4.472;2023-05-10T12:03:44;16.61;62.86
76239;SHT30;65043;48.392;-4.472;2023-05-10T12:06:10;16.60;63.07
76239;SHT30;65043;48.392;-4.472;2023-05-10T12:08:35;16.57;63.04
76239;SHT30;65043;48.392;-4.472;2023-05-10T12:11:06;16.60;63.36
76239;SHT30;65043;48.392;-4.472;2023-05-10T12:13:32;16.65;63.54
76239;SHT30;65043;48.392;-4.472;2023-05-10T12:15:58;16.68;63.58
76239;SHT30;65043;48.392;-4.472;2023-05-10T12:18:24;16.65;63.65
76239;SHT30;65043;48.392;-4.472;2023-05-10T12:20:52;16.67;63.61
76239;SHT30;65043;48.392;-4.472;2023-05-10T12:23:20;16.68;63.13
76239;SHT30;65043;48.392;-4.472;2023-05-10T12:25:46;16.68;62.78
76239;SHT30;65043;48.392;-4.472;2023-05-10T12:28:12;16.61;63.15
76239;SHT30;65043;48.392;-4.472;2023-05-10T12:30:38;16.61;63.66
76239;SHT30;65043;48.392;-4.472;2023-05-10T12:33:11;16.60;64.50
76239;SHT30;65043;48.392;-4.472;2023-05-10T12:35:52;16.63;64.75
76239;SHT30;65043;48.392;-4.472;2023-05-10T12:38:28;16.60;64.02
76239;SHT30;65043;48.392;-4.472;2023-05-10T12:40:56;16.57;63.14
76239;SHT30;65043;48.392;-4.472;2023-05-10T12:43:21;16.50;62.52
76239;SHT30;65043;48.392;-4.472;2023-05-10T12:45:47;16.50;63.18
76239;SHT30;65043;48.392;-4.472;2023-05-10T12:48:14;16.57;63.91
76239;SHT30;65043;48.392;-4.472;2023-05-10T12:50:40;16.64;63.04
76239;SHT30;65043;48.392;-4.472;2023-05-10T12:53:05;16.67;62.06
76239;SHT30;65043;48.392;-4.472;2023-05-10T12:55:31;16.71;62.11
76239;SHT30;65043;48.392;-4.472;2023-05-10T12:57:56;16.64;62.18
76239;SHT30;65043;48.392;-4.472;2023-05-10T13:00:22;16.67;62.29
76239;SHT30;65043;48.392;-4.472;2023-05-10T13:02:47;16.63;62.57
76239;SHT30;65043;48.392;-4.472;2023-05-10T13:05:13;16.57;62.62
76239;SHT30;65043;48.392;-4.472;2023-05-10T13:07:38;16.48;63.60
76239;SHT30;65043;48.392;-4.472;2023-05-10T13:10:05;16.50;64.20
76239;SHT30;65043;48.392;-4.472;2023-05-10T13:12:31;16.46;64.52
76239;SHT30;65043;48.392;-4.472;2023-05-10T13:14:56;16.41;65.18
76239;SHT30;65043;48.392;-4.472;2023-05-10T13:17:22;16.40;65.75
76239;SHT30;65043;48.392;-4.472;2023-05-10T13:19:47;16.37;65.75
76239;SHT30;65043;48.392;-4.472;2023-05-10T13:22:13;16.36;66.22
76239;SHT30;65043;48.392;-4.472;2023-05-10T13:24:39;16.37;66.56
76239;SHT30;65043;48.392;-4.472;2023-05-10T13:27:04;16.37;66.40
76239;SHT30;65043;48.392;-4.472;2023-05-10T13:29:30;16.43;66.13
76239;SHT30;65043;48.392;-4.472;2023-05-10T13:31:55;16.46;66.02
76239;SHT30;65043;48.392;-4.472;2023-05-10T13:34:21;16.46;65.95
76239;SHT30;65043;48.392;-4.472;2023-05-10T13:36:47;16.56;66.18
76239;SHT30;65043;48.392;-4.472;2023-05-10T13:39:13;16.56;65.43
76239;SHT30;65043;48.392;-4.472;2023-05-10T13:41:38;16.51;65.30
76239;SHT30;65043;48.392;-4.472;2023-05-10T13:44:04;16.57;65.50
76239;SHT30;65043;48.392;-4.472;2023-05-10T13:46:29;16.61;64.82
76239;SHT30;65043;48.392;-4.472;2023-05-10T13:48:55;16.75;65.00
76239;SHT30;65043;48.392;-4.472;2023-05-10T13:51:22;16.92;65.13
76239;SHT30;65043;48.392;-4.472;2023-05-10T13:53:47;17.02;63.76
76239;SHT30;65043;48.392;-4.472;2023-05-10T13:56:13;17.15;63.73
76239;SHT30;65043;48.392;-4.472;2023-05-10T13:58:40;17.20;62.82
76239;SHT30;65043;48.392;-4.472;2023-05-10T14:01:06;17.20;62.41
76239;SHT30;65043;48.392;-4.472;2023-05-10T14:03:32;17.23;62.84
76239;SHT30;65043;48.392;-4.472;2023-05-10T14:05:57;17.29;62.13
76239;SHT30;65043;48.392;-4.472;2023-05-10T14:08:23;17.28;62.45
76239;SHT30;65043;48.392;-4.472;2023-05-10T14:10:48;17.14;61.70
76239;SHT30;65043;48.392;-4.472;2023-05-10T14:13:14;17.07;61.15
76239;SHT30;65043;48.392;-4.472;2023-05-10T14:15:40;17.04;61.38
76239;SHT30;65043;48.392;-4.472;2023-05-10T14:18:06;17.05;61.22
76239;SHT30;65043;48.392;-4.472;2023-05-10T14:20:31;17.09;60.84
76239;SHT30;65043;48.392;-4.472;2023-05-10T14:22:59;17.08;59.77
76239;SHT30;65043;48.392;-4.472;2023-05-10T14:25:24;17.14;60.17
76239;SHT30;65043;48.392;-4.472;2023-05-10T14:27:50;17.15;59.39
76239;SHT30;65043;48.392;-4.472;2023-05-10T14:30:16;17.11;59.09
76239;SHT30;65043;48.392;-4.472;2023-05-10T14:32:41;17.11;59.62
76239;SHT30;65043;48.392;-4.472;2023-05-10T14:35:07;17.04;59.25
76239;SHT30;65043;48.392;-4.472;2023-05-10T14:37:32;16.99;59.65
76239;SHT30;65043;48.392;-4.472;2023-05-10T14:39:58;16.89;59.50
76239;SHT30;65043;48.392;-4.472;2023-05-10T14:42:23;16.88;60.49
76239;SHT30;65043;48.392;-4.472;2023-05-10T14:44:49;16.92;60.60
76239;SHT30;65043;48.392;-4.472;2023-05-10T14:47:14;16.94;61.58
76239;SHT30;65043;48.392;-4.472;2023-05-10T14:49:39;16.96;61.60
76239;SHT30;65043;48.392;-4.472;2023-05-10T14:52:06;16.96;61.44
76239;SHT30;65043;48.392;-4.472;2023-05-10T14:54:33;16.94;62.29
76239;SHT30;65043;48.392;-4.472;2023-05-10T14:56:58;16.91;62.52
76239;SHT30;65043;48.392;-4.472;2023-05-10T14:59:25;16.88;63.22
76239;SHT30;65043;48.392;-4.472;2023-05-10T15:01:50;16.77;64.71
76239;SHT30;65043;48.392;-4.472;2023-05-10T15:04:16;16.67;66.07
76239;SHT30;65043;48.392;-4.472;2023-05-10T15:06:41;16.57;67.51
76239;SHT30;65043;48.392;-4.472;2023-05-10T15:09:07;16.48;68.74
76239;SHT30;65043;48.392;-4.472;2023-05-10T15:11:32;16.41;68.60
76239;SHT30;65043;48.392;-4.472;2023-05-10T15:13:58;16.43;68.70
76239;SHT30;65043;48.392;-4.472;2023-05-10T15:16:23;16.41;68.49
76239;SHT30;65043;48.392;-4.472;2023-05-10T15:18:50;16.41;68.62
76239;SHT30;65043;48.392;-4.472;2023-05-10T15:21:15;16.46;68.21
76239;SHT30;65043;48.392;-4.472;2023-05-10T15:23:41;16.50;67.49
76239;SHT30;65043;48.392;-4.472;2023-05-10T15:26:06;16.64;67.93
76239;SHT30;65043;48.392;-4.472;2023-05-10T15:28:31;16.78;66.53
76239;SHT30;65043;48.392;-4.472;2023-05-10T15:30:57;16.95;65.88
76239;SHT30;65043;48.392;-4.472;2023-05-10T15:33:22;17.02;65.03
76239;SHT30;65043;48.392;-4.472;2023-05-10T15:35:48;17.12;64.41
76239;SHT30;65043;48.392;-4.472;2023-05-10T15:38:13;17.28;63.09
76239;SHT30;65043;48.392;-4.472;2023-05-10T15:40:39;17.38;62.08
76239;SHT30;65043;48.392;-4.472;2023-05-10T15:43:04;17.50;61.86
76239;SHT30;65043;48.392;-4.472;2023-05-10T15:45:32;17.60;60.79